sensor_id;sensor_type;location;lat;lon;timestamp;P1;durP1;ratioP1;P2;durP2;ratioP2
46719;SDS011;32452;51.382;-0.002;2023-07-29T00:02:34;3.25;;;1.70;;
46719;SDS011;32452;51.382;-0.002;2023-07-29T00:05:19;3.72;;;1.42;;
46719;SDS011;32452;51.382;-0.002;2023-07-29T00:08:05;4.35;;;1.25;;
46719;SDS011;32452;51.382;-0.002;2023-07-29T00:10:50;5.57;;;2.00;;
46719;SDS011;32452;51.382;-0.002;2023-07-29T00:13:36;4.45;;;1.38;;
46719;SDS011;32452;51.382;-0.002;2023-07-29T00:16:22;3.70;;;1.55;;
46719;SDS011;32452;51.382;-0.002;2023-07-29T00:19:08;3.90;;;1.85;;
46719;SDS011;32452;51.382;-0.002;2023-07-29T00:21:53;6.85;;;2.42;;
46719;SDS011;32452;51.382;-0.002;2023-07-29T00:24:39;3.60;;;1.58;;
46719;SDS011;32452;51.382;-0.002;2023-07-29T00:27:25;5.18;;;1.50;;
46719;SDS011;32452;51.382;-0.002;2023-07-29T00:30:11;4.05;;;1.42;;
46719;SDS011;32452;51.382;-0.002;2023-07-29T00:32:57;5.03;;;2.20;;
46719;SDS011;32452;51.382;-0.002;2023-07-29T00:35:42;3.58;;;1.58;;
46719;SDS011;32452;51.382;-0.002;2023-07-29T00:38:28;4.93;;;1.40;;
46719;SDS011;32452;51.382;-0.002;2023-07-29T00:41:14;4.57;;;2.08;;
46719;SDS011;32452;51.382;-0.002;2023-07-29T00:44:00;4.53;;;1.45;;
46719;SDS011;32452;51.382;-0.002;2023-07-29T00:46:46;5.78;;;1.52;;
46719;SDS011;32452;51.382;-0.002;2023-07-29T00:49:32;3.45;;;1.83;;
46719;SDS011;32452;51.382;-0.002;2023-07-29T00:52:18;3.95;;;1.77;;
46719;SDS011;32452;51.382;-0.002;2023-07-29T00:55:04;4.70;;;1.92;;
46719;SDS011;32452;51.382;-0.002;2023-07-29T00:57:50;3.72;;;2.10;;
46719;SDS011;32452;51.382;-0.002;2023-07-29T01:00:39;6.70;;;2.30;;
46719;SDS011;32452;51.382;-0.002;2023-07-29T01:03:25;4.30;;;1.77;;
46719;SDS011;32452;51.382;-0.002;2023-07-29T01:09:31;6.55;;;2.15;;
46719;SDS011;32452;51.382;-0.002;2023-07-29T01:12:22;3.88;;;2.10;;
46719;SDS011;32452;51.382;-0.002;2023-07-29T01:15:16;4.25;;;2.17;;
46719;SDS011;32452;51.382;-0.002;2023-07-29T01:18:05;4.47;;;2.25;;
46719;SDS011;32452;51.382;-0.002;2023-07-29T01:21:12;6.45;;;2.10;;
46719;SDS011;32452;51.382;-0.002;2023-07-29T01:23:59;6.38;;;2.47;;
46719;SDS011;32452;51.382;-0.002;2023-07-29T01:26:44;7.25;;;2.58;;
46719;SDS011;32452;51.382;-0.002;2023-07-29T01:29:30;5.78;;;2.28;;
46719;SDS011;32452;51.382;-0.002;2023-07-29T01:32:21;6.80;;;2.85;;
46719;SDS011;32452;51.382;-0.002;2023-07-29T01:35:15;8.50;;;2.70;;
46719;SDS011;32452;51.382;-0.002;2023-07-29T01:38:30;7.15;;;3.33;;
46719;SDS011;32452;51.382;-0.002;2023-07-29T01:41:20;4.30;;;2.80;;
46719;SDS011;32452;51.382;-0.002;2023-07-29T01:44:06;6.20;;;2.60;;
46719;SDS011;32452;51.382;-0.002;2023-07-29T01:46:52;4.63;;;2.38;;
46719;SDS011;32452;51.382;-0.002;2023-07-29T01:49:37;9.77;;;2.85;;
46719;SDS011;32452;51.382;-0.002;2023-07-29T01:52:23;11.57;;;2.85;;
46719;SDS011;32452;51.382;-0.002;2023-07-29T01:55:08;5.93;;;2.53;;
46719;SDS011;32452;51.382;-0.002;2023-07-29T01:57:54;7.25;;;3.10;;
46719;SDS011;32452;51.382;-0.002;2023-07-29T02:00:40;6.97;;;3.20;;
46719;SDS011;32452;51.382;-0.002;2023-07-29T02:03:25;5.22;;;3.13;;
46719;SDS011;32452;51.382;-0.002;2023-07-29T02:06:11;6.05;;;3.00;;
46719;SDS011;32452;51.382;-0.002;2023-07-29T02:08:56;8.13;;;3.22;;
46719;SDS011;32452;51.382;-0.002;2023-07-29T02:11:42;8.40;;;2.78;;
46719;SDS011;32452;51.382;-0.002;2023-07-29T02:14:28;7.45;;;3.10;;
46719;SDS011;32452;51.382;-0.002;2023-07-29T02:17:13;7.55;;;2.92;;
46719;SDS011;32452;51.382;-0.002;2023-07-29T02:19:59;10.43;;;3.80;;
46719;SDS011;32452;51.382;-0.002;2023-07-29T02:22:44;9.60;;;3.47;;
46719;SDS011;32452;51.382;-0.002;2023-07-29T02:25:30;5.00;;;3.25;;
46719;SDS011;32452;51.382;-0.002;2023-07-29T02:28:16;12.85;;;4.55;;
46719;SDS011;32452;51.382;-0.002;2023-07-29T02:31:15;8.80;;;3.80;;
46719;SDS011;32452;51.382;-0.002;2023-07-29T02:34:02;7.18;;;3.92;;
46719;SDS011;32452;51.382;-0.002;2023-07-29T02:36:47;10.35;;;4.15;;
46719;SDS011;32452;51.382;-0.002;2023-07-29T02:39:34;8.23;;;4.00;;
46719;SDS011;32452;51.382;-0.002;2023-07-29T02:42:19;8.27;;;3.97;;
46719;SDS011;32452;51.382;-0.002;2023-07-29T02:45:05;8.25;;;3.90;;
46719;SDS011;32452;51.382;-0.002;2023-07-29T02:47:54;13.60;;;4.70;;
46719;SDS011;32452;51.382;-0.002;2023-07-29T02:50:40;7.00;;;4.05;;
46719;SDS011;32452;51.382;-0.002;2023-07-29T02:53:25;9.57;;;3.90;;
46719;SDS011;32452;51.382;-0.002;2023-07-29T02:56:13;8.60;;;3.50;;
46719;SDS011;32452;51.382;-0.002;2023-07-29T02:58:58;10.07;;;3.70;;
46719;SDS011;32452;51.382;-0.002;2023-07-29T03:01:44;10.07;;;3.30;;
46719;SDS011;32452;51.382;-0.002;2023-07-29T03:04:30;7.95;;;3.63;;
46719;SDS011;32452;51.382;-0.002;2023-07-29T03:07:18;13.68;;;3.38;;
46719;SDS011;32452;51.382;-0.002;2023-07-29T03:10:05;6.25;;;3.00;;
46719;SDS011;32452;51.382;-0.002;2023-07-29T03:12:53;12.38;;;3.60;;
46719;SDS011;32452;51.382;-0.002;2023-07-29T03:15:40;7.20;;;3.03;;
46719;SDS011;32452;51.382;-0.002;2023-07-29T03:18:26;12.50;;;4.88;;
46719;SDS011;32452;51.382;-0.002;2023-07-29T03:21:11;9.32;;;3.45;;
46719;SDS011;32452;51.382;-0.002;2023-07-29T03:23:57;9.57;;;3.30;;
46719;SDS011;32452;51.382;-0.002;2023-07-29T03:26:42;11.82;;;2.92;;
46719;SDS011;32452;51.382;-0.002;2023-07-29T03:29:30;11.75;;;3.20;;
46719;SDS011;32452;51.382;-0.002;2023-07-29T03:32:16;10.13;;;3.88;;
46719;SDS011;32452;51.382;-0.002;2023-07-29T03:35:02;9.93;;;3.47;;
46719;SDS011;32452;51.382;-0.002;2023-07-29T03:37:48;11.15;;;3.65;;
46719;SDS011;32452;51.382;-0.002;2023-07-29T03:40:33;6.85;;;3.50;;
46719;SDS011;32452;51.382;-0.002;2023-07-29T03:43:19;10.00;;;3.85;;
46719;SDS011;32452;51.382;-0.002;2023-07-29T03:46:04;8.13;;;3.35;;
46719;SDS011;32452;51.382;-0.002;2023-07-29T03:48:53;11.20;;;4.65;;
46719;SDS011;32452;51.382;-0.002;2023-07-29T03:51:39;8.07;;;3.53;;
46719;SDS011;32452;51.382;-0.002;2023-07-29T03:54:25;7.97;;;3.60;;
46719;SDS011;32452;51.382;-0.002;2023-07-29T03:57:11;8.65;;;3.95;;
46719;SDS011;32452;51.382;-0.002;2023-07-29T03:59:56;11.55;;;3.90;;
46719;SDS011;32452;51.382;-0.002;2023-07-29T04:02:42;10.75;;;4.25;;
46719;SDS011;32452;51.382;-0.002;2023-07-29T04:05:30;9.43;;;4.00;;
46719;SDS011;32452;51.382;-0.002;2023-07-29T04:08:15;11.05;;;3.83;;
46719;SDS011;32452;51.382;-0.002;2023-07-29T04:11:01;13.90;;;4.20;;
46719;SDS011;32452;51.382;-0.002;2023-07-29T04:13:46;12.00;;;3.75;;
46719;SDS011;32452;51.382;-0.002;2023-07-29T04:16:32;8.93;;;3.95;;
46719;SDS011;32452;51.382;-0.002;2023-07-29T04:19:18;10.95;;;3.65;;
46719;SDS011;32452;51.382;-0.002;2023-07-29T04:22:03;16.45;;;4.40;;
46719;SDS011;32452;51.382;-0.002;2023-07-29T04:24:49;10.98;;;3.70;;
46719;SDS011;32452;51.382;-0.002;2023-07-29T04:27:34;6.70;;;3.50;;
46719;SDS011;32452;51.382;-0.002;2023-07-29T04:30:20;13.32;;;3.92;;
46719;SDS011;32452;51.382;-0.002;2023-07-29T04:33:05;9.00;;;3.85;;
46719;SDS011;32452;51.382;-0.002;2023-07-29T04:35:51;12.30;;;3.33;;
46719;SDS011;32452;51.382;-0.002;2023-07-29T04:38:36;11.15;;;3.50;;
46719;SDS011;32452;51.382;-0.002;2023-07-29T04:41:23;8.20;;;3.58;;
46719;SDS011;32452;51.382;-0.002;2023-07-29T04:44:08;11.93;;;4.15;;
46719;SDS011;32452;51.382;-0.002;2023-07-29T04:46:54;11.32;;;3.83;;
46719;SDS011;32452;51.382;-0.002;2023-07-29T04:49:39;12.65;;;3.83;;
46719;SDS011;32452;51.382;-0.002;2023-07-29T04:52:25;9.50;;;3.83;;
46719;SDS011;32452;51.382;-0.002;2023-07-29T04:55:10;8.75;;;3.67;;
46719;SDS011;32452;51.382;-0.002;2023-07-29T04:57:56;13.63;;;4.28;;
46719;SDS011;32452;51.382;-0.002;2023-07-29T05:00:41;11.98;;;4.00;;
46719;SDS011;32452;51.382;-0.002;2023-07-29T05:03:27;10.80;;;3.85;;
46719;SDS011;32452;51.382;-0.002;2023-07-29T05:06:12;9.63;;;3.35;;
46719;SDS011;32452;51.382;-0.002;2023-07-29T05:08:58;11.07;;;3.70;;
46719;SDS011;32452;51.382;-0.002;2023-07-29T05:11:57;11.48;;;4.00;;
46719;SDS011;32452;51.382;-0.002;2023-07-29T05:14:42;11.00;;;3.83;;
46719;SDS011;32452;51.382;-0.002;2023-07-29T05:17:28;10.85;;;3.90;;
46719;SDS011;32452;51.382;-0.002;2023-07-29T05:20:14;10.23;;;3.85;;
46719;SDS011;32452;51.382;-0.002;2023-07-29T05:22:59;12.57;;;3.95;;
46719;SDS011;32452;51.382;-0.002;2023-07-29T05:25:45;6.72;;;4.05;;
46719;SDS011;32452;51.382;-0.002;2023-07-29T05:28:31;13.55;;;4.50;;
46719;SDS011;32452;51.382;-0.002;2023-07-29T05:31:16;11.07;;;4.25;;
46719;SDS011;32452;51.382;-0.002;2023-07-29T05:34:02;17.70;;;4.05;;
46719;SDS011;32452;51.382;-0.002;2023-07-29T05:36:48;9.68;;;4.03;;
46719;SDS011;32452;51.382;-0.002;2023-07-29T05:39:34;13.35;;;4.43;;
46719;SDS011;32452;51.382;-0.002;2023-07-29T05:42:20;12.50;;;4.47;;
46719;SDS011;32452;51.382;-0.002;2023-07-29T05:45:05;13.98;;;4.80;;
46719;SDS011;32452;51.382;-0.002;2023-07-29T05:47:52;13.48;;;4.82;;
46719;SDS011;32452;51.382;-0.002;2023-07-29T05:50:39;14.95;;;4.38;;
46719;SDS011;32452;51.382;-0.002;2023-07-29T05:53:25;15.07;;;5.00;;
46719;SDS011;32452;51.382;-0.002;2023-07-29T05:56:10;12.50;;;4.80;;
46719;SDS011;32452;51.382;-0.002;2023-07-29T05:58:56;12.50;;;4.53;;
46719;SDS011;32452;51.382;-0.002;2023-07-29T06:01:41;9.45;;;4.13;;
46719;SDS011;32452;51.382;-0.002;2023-07-29T06:04:27;12.93;;;4.15;;
46719;SDS011;32452;51.382;-0.002;2023-07-29T06:07:12;8.13;;;3.78;;
46719;SDS011;32452;51.382;-0.002;2023-07-29T06:09:58;12.95;;;3.78;;
46719;SDS011;32452;51.382;-0.002;2023-07-29T06:12:44;9.20;;;3.55;;
46719;SDS011;32452;51.382;-0.002;2023-07-29T06:15:30;16.10;;;4.05;;
46719;SDS011;32452;51.382;-0.002;2023-07-29T06:18:16;11.23;;;3.70;;
46719;SDS011;32452;51.382;-0.002;2023-07-29T06:21:02;9.60;;;3.60;;
46719;SDS011;32452;51.382;-0.002;2023-07-29T06:23:52;7.57;;;3.33;;
46719;SDS011;32452;51.382;-0.002;2023-07-29T06:26:37;7.72;;;3.53;;
46719;SDS011;32452;51.382;-0.002;2023-07-29T06:29:23;8.88;;;3.17;;
46719;SDS011;32452;51.382;-0.002;2023-07-29T06:32:08;6.65;;;3.15;;
46719;SDS011;32452;51.382;-0.002;2023-07-29T06:34:54;7.82;;;2.75;;
46719;SDS011;32452;51.382;-0.002;2023-07-29T06:37:39;6.50;;;2.85;;
46719;SDS011;32452;51.382;-0.002;2023-07-29T06:40:25;7.63;;;3.08;;
46719;SDS011;32452;51.382;-0.002;2023-07-29T06:43:11;6.22;;;2.90;;
46719;SDS011;32452;51.382;-0.002;2023-07-29T06:45:56;4.65;;;2.50;;
46719;SDS011;32452;51.382;-0.002;2023-07-29T06:48:42;6.57;;;2.67;;
46719;SDS011;32452;51.382;-0.002;2023-07-29T06:51:27;4.60;;;2.38;;
46719;SDS011;32452;51.382;-0.002;2023-07-29T06:54:17;9.63;;;2.63;;
46719;SDS011;32452;51.382;-0.002;2023-07-29T06:57:02;6.32;;;1.90;;
46719;SDS011;32452;51.382;-0.002;2023-07-29T06:59:48;3.75;;;2.00;;
46719;SDS011;32452;51.382;-0.002;2023-07-29T07:02:33;6.30;;;2.55;;
46719;SDS011;32452;51.382;-0.002;2023-07-29T07:05:19;7.45;;;2.10;;
46719;SDS011;32452;51.382;-0.002;2023-07-29T07:08:05;4.10;;;2.63;;
46719;SDS011;32452;51.382;-0.002;2023-07-29T07:10:51;8.05;;;2.33;;
46719;SDS011;32452;51.382;-0.002;2023-07-29T07:13:36;10.60;;;2.20;;
46719;SDS011;32452;51.382;-0.002;2023-07-29T07:16:22;5.18;;;2.00;;
46719;SDS011;32452;51.382;-0.002;2023-07-29T07:19:07;4.80;;;2.30;;
46719;SDS011;32452;51.382;-0.002;2023-07-29T07:21:53;5.57;;;2.10;;
46719;SDS011;32452;51.382;-0.002;2023-07-29T07:24:39;5.72;;;2.10;;
46719;SDS011;32452;51.382;-0.002;2023-07-29T07:27:24;4.32;;;1.98;;
46719;SDS011;32452;51.382;-0.002;2023-07-29T07:30:10;6.15;;;2.53;;
46719;SDS011;32452;51.382;-0.002;2023-07-29T07:32:56;3.72;;;2.03;;
46719;SDS011;32452;51.382;-0.002;2023-07-29T07:35:41;4.70;;;2.10;;
46719;SDS011;32452;51.382;-0.002;2023-07-29T07:38:27;5.35;;;2.00;;
46719;SDS011;32452;51.382;-0.002;2023-07-29T07:41:13;4.43;;;1.98;;
46719;SDS011;32452;51.382;-0.002;2023-07-29T07:43:58;6.07;;;2.00;;
46719;SDS011;32452;51.382;-0.002;2023-07-29T07:46:44;5.13;;;1.90;;
46719;SDS011;32452;51.382;-0.002;2023-07-29T07:49:30;4.43;;;2.10;;
46719;SDS011;32452;51.382;-0.002;2023-07-29T07:52:15;7.50;;;2.50;;
46719;SDS011;32452;51.382;-0.002;2023-07-29T07:55:01;4.15;;;1.92;;
46719;SDS011;32452;51.382;-0.002;2023-07-29T07:57:46;3.80;;;2.20;;
46719;SDS011;32452;51.382;-0.002;2023-07-29T08:00:32;5.20;;;2.22;;
46719;SDS011;32452;51.382;-0.002;2023-07-29T08:03:17;9.20;;;2.05;;
46719;SDS011;32452;51.382;-0.002;2023-07-29T08:06:03;7.13;;;2.38;;
46719;SDS011;32452;51.382;-0.002;2023-07-29T08:08:52;8.55;;;2.10;;
46719;SDS011;32452;51.382;-0.002;2023-07-29T08:11:38;5.40;;;2.03;;
46719;SDS011;32452;51.382;-0.002;2023-07-29T08:14:23;5.35;;;2.20;;
46719;SDS011;32452;51.382;-0.002;2023-07-29T08:17:09;8.32;;;2.53;;
46719;SDS011;32452;51.382;-0.002;2023-07-29T08:19:54;5.07;;;1.90;;
46719;SDS011;32452;51.382;-0.002;2023-07-29T08:22:40;3.38;;;1.70;;
46719;SDS011;32452;51.382;-0.002;2023-07-29T08:25:26;5.57;;;2.08;;
46719;SDS011;32452;51.382;-0.002;2023-07-29T08:28:11;4.97;;;2.38;;
46719;SDS011;32452;51.382;-0.002;2023-07-29T08:30:57;5.80;;;2.60;;
46719;SDS011;32452;51.382;-0.002;2023-07-29T08:33:42;4.72;;;3.00;;
46719;SDS011;32452;51.382;-0.002;2023-07-29T08:36:28;5.18;;;2.63;;
46719;SDS011;32452;51.382;-0.002;2023-07-29T08:39:13;11.45;;;3.40;;
46719;SDS011;32452;51.382;-0.002;2023-07-29T08:42:07;7.03;;;2.38;;
46719;SDS011;32452;51.382;-0.002;2023-07-29T08:44:56;5.53;;;2.13;;
46719;SDS011;32452;51.382;-0.002;2023-07-29T08:47:44;7.45;;;2.30;;
46719;SDS011;32452;51.382;-0.002;2023-07-29T08:50:29;5.93;;;2.10;;
46719;SDS011;32452;51.382;-0.002;2023-07-29T08:53:17;7.00;;;2.03;;
46719;SDS011;32452;51.382;-0.002;2023-07-29T08:56:03;3.90;;;2.00;;
46719;SDS011;32452;51.382;-0.002;2023-07-29T08:58:50;6.45;;;2.33;;
46719;SDS011;32452;51.382;-0.002;2023-07-29T09:01:37;8.18;;;3.13;;
46719;SDS011;32452;51.382;-0.002;2023-07-29T09:04:23;6.45;;;1.60;;
46719;SDS011;32452;51.382;-0.002;2023-07-29T09:07:10;6.90;;;2.20;;
46719;SDS011;32452;51.382;-0.002;2023-07-29T09:09:56;7.20;;;2.03;;
46719;SDS011;32452;51.382;-0.002;2023-07-29T09:12:41;3.65;;;2.00;;
46719;SDS011;32452;51.382;-0.002;2023-07-29T09:15:31;3.38;;;1.70;;
46719;SDS011;32452;51.382;-0.002;2023-07-29T09:18:19;4.85;;;1.77;;
46719;SDS011;32452;51.382;-0.002;2023-07-29T09:21:04;4.20;;;1.88;;
46719;SDS011;32452;51.382;-0.002;2023-07-29T09:23:50;4.72;;;1.77;;
46719;SDS011;32452;51.382;-0.002;2023-07-29T09:26:36;6.10;;;1.90;;
46719;SDS011;32452;51.382;-0.002;2023-07-29T09:29:22;5.07;;;2.30;;
46719;SDS011;32452;51.382;-0.002;2023-07-29T09:32:18;4.55;;;1.75;;
46719;SDS011;32452;51.382;-0.002;2023-07-29T09:35:13;6.38;;;2.30;;
46719;SDS011;32452;51.382;-0.002;2023-07-29T09:37:59;5.87;;;2.00;;
46719;SDS011;32452;51.382;-0.002;2023-07-29T09:40:46;7.13;;;2.42;;
46719;SDS011;32452;51.382;-0.002;2023-07-29T09:43:32;6.47;;;2.08;;
46719;SDS011;32452;51.382;-0.002;2023-07-29T09:46:19;2.50;;;1.73;;
46719;SDS011;32452;51.382;-0.002;2023-07-29T09:49:09;4.88;;;1.88;;
46719;SDS011;32452;51.382;-0.002;2023-07-29T09:51:55;5.63;;;2.08;;
46719;SDS011;32452;51.382;-0.002;2023-07-29T09:54:42;4.70;;;1.90;;
46719;SDS011;32452;51.382;-0.002;2023-07-29T09:57:29;4.00;;;1.98;;
46719;SDS011;32452;51.382;-0.002;2023-07-29T10:00:15;5.80;;;2.38;;
46719;SDS011;32452;51.382;-0.002;2023-07-29T10:03:00;4.65;;;1.65;;
46719;SDS011;32452;51.382;-0.002;2023-07-29T10:05:46;4.60;;;1.85;;
46719;SDS011;32452;51.382;-0.002;2023-07-29T10:08:32;9.45;;;2.55;;
46719;SDS011;32452;51.382;-0.002;2023-07-29T10:11:23;6.97;;;2.30;;
46719;SDS011;32452;51.382;-0.002;2023-07-29T10:14:10;4.90;;;2.00;;
46719;SDS011;32452;51.382;-0.002;2023-07-29T10:16:56;6.15;;;2.20;;
46719;SDS011;32452;51.382;-0.002;2023-07-29T10:19:43;5.20;;;1.90;;
46719;SDS011;32452;51.382;-0.002;2023-07-29T10:22:34;5.28;;;2.53;;
46719;SDS011;32452;51.382;-0.002;2023-07-29T10:25:21;8.07;;;2.97;;
46719;SDS011;32452;51.382;-0.002;2023-07-29T10:28:08;9.05;;;3.08;;
46719;SDS011;32452;51.382;-0.002;2023-07-29T10:30:57;7.72;;;2.83;;
46719;SDS011;32452;51.382;-0.002;2023-07-29T10:33:44;7.60;;;2.80;;
46719;SDS011;32452;51.382;-0.002;2023-07-29T10:36:30;9.35;;;2.80;;
46719;SDS011;32452;51.382;-0.002;2023-07-29T10:39:15;3.90;;;2.08;;
46719;SDS011;32452;51.382;-0.002;2023-07-29T10:42:01;4.90;;;2.08;;
46719;SDS011;32452;51.382;-0.002;2023-07-29T10:44:50;5.85;;;1.90;;
46719;SDS011;32452;51.382;-0.002;2023-07-29T10:47:36;5.95;;;2.33;;
46719;SDS011;32452;51.382;-0.002;2023-07-29T10:50:22;6.50;;;2.10;;
46719;SDS011;32452;51.382;-0.002;2023-07-29T10:53:07;5.22;;;1.60;;
46719;SDS011;32452;51.382;-0.002;2023-07-29T10:55:53;5.63;;;1.98;;
46719;SDS011;32452;51.382;-0.002;2023-07-29T10:58:41;5.45;;;1.90;;
46719;SDS011;32452;51.382;-0.002;2023-07-29T11:01:30;4.15;;;1.88;;
46719;SDS011;32452;51.382;-0.002;2023-07-29T11:09:53;6.57;;;2.15;;
46719;SDS011;32452;51.382;-0.002;2023-07-29T11:15:36;5.82;;;2.00;;
46719;SDS011;32452;51.382;-0.002;2023-07-29T11:18:27;4.72;;;1.60;;
46719;SDS011;32452;51.382;-0.002;2023-07-29T11:21:14;5.28;;;2.00;;
46719;SDS011;32452;51.382;-0.002;2023-07-29T11:23:59;5.93;;;1.90;;
46719;SDS011;32452;51.382;-0.002;2023-07-29T11:26:48;7.97;;;1.77;;
46719;SDS011;32452;51.382;-0.002;2023-07-29T11:29:34;7.50;;;2.10;;
46719;SDS011;32452;51.382;-0.002;2023-07-29T11:32:19;5.65;;;1.90;;
46719;SDS011;32452;51.382;-0.002;2023-07-29T11:35:12;7.50;;;2.33;;
46719;SDS011;32452;51.382;-0.002;2023-07-29T11:38:01;5.47;;;1.92;;
46719;SDS011;32452;51.382;-0.002;2023-07-29T11:41:00;7.55;;;1.80;;
46719;SDS011;32452;51.382;-0.002;2023-07-29T11:43:48;3.88;;;1.75;;
46719;SDS011;32452;51.382;-0.002;2023-07-29T11:46:34;3.83;;;1.50;;
46719;SDS011;32452;51.382;-0.002;2023-07-29T11:49:20;8.40;;;2.53;;
46719;SDS011;32452;51.382;-0.002;2023-07-29T11:52:07;7.95;;;2.30;;
46719;SDS011;32452;51.382;-0.002;2023-07-29T11:54:53;7.20;;;1.98;;
46719;SDS011;32452;51.382;-0.002;2023-07-29T11:57:39;8.13;;;1.95;;
46719;SDS011;32452;51.382;-0.002;2023-07-29T12:00:26;10.60;;;2.67;;
46719;SDS011;32452;51.382;-0.002;2023-07-29T12:03:13;7.50;;;2.20;;
46719;SDS011;32452;51.382;-0.002;2023-07-29T12:06:01;6.15;;;1.80;;
46719;SDS011;32452;51.382;-0.002;2023-07-29T12:08:47;5.68;;;1.98;;
46719;SDS011;32452;51.382;-0.002;2023-07-29T12:11:32;6.50;;;2.70;;
46719;SDS011;32452;51.382;-0.002;2023-07-29T12:14:19;6.10;;;1.98;;
46719;SDS011;32452;51.382;-0.002;2023-07-29T12:17:07;6.15;;;1.90;;
46719;SDS011;32452;51.382;-0.002;2023-07-29T12:19:55;6.07;;;1.90;;
46719;SDS011;32452;51.382;-0.002;2023-07-29T12:22:40;10.60;;;2.35;;
46719;SDS011;32452;51.382;-0.002;2023-07-29T12:25:26;6.88;;;2.58;;
46719;SDS011;32452;51.382;-0.002;2023-07-29T12:28:12;9.57;;;2.40;;
46719;SDS011;32452;51.382;-0.002;2023-07-29T12:30:57;6.78;;;2.10;;
46719;SDS011;32452;51.382;-0.002;2023-07-29T12:33:43;3.83;;;2.00;;
46719;SDS011;32452;51.382;-0.002;2023-07-29T12:36:42;8.40;;;2.60;;
46719;SDS011;32452;51.382;-0.002;2023-07-29T12:39:30;5.30;;;1.90;;
46719;SDS011;32452;51.382;-0.002;2023-07-29T12:42:17;5.50;;;1.83;;
46719;SDS011;32452;51.382;-0.002;2023-07-29T12:45:03;6.80;;;2.00;;
46719;SDS011;32452;51.382;-0.002;2023-07-29T12:47:49;6.00;;;1.95;;
46719;SDS011;32452;51.382;-0.002;2023-07-29T12:50:35;5.70;;;1.60;;
46719;SDS011;32452;51.382;-0.002;2023-07-29T12:53:20;4.97;;;1.52;;
46719;SDS011;32452;51.382;-0.002;2023-07-29T12:56:06;6.22;;;1.95;;
46719;SDS011;32452;51.382;-0.002;2023-07-29T12:58:52;7.65;;;2.17;;
46719;SDS011;32452;51.382;-0.002;2023-07-29T13:01:37;6.53;;;2.05;;
46719;SDS011;32452;51.382;-0.002;2023-07-29T13:04:23;8.20;;;1.88;;
46719;SDS011;32452;51.382;-0.002;2023-07-29T13:07:08;6.75;;;1.77;;
46719;SDS011;32452;51.382;-0.002;2023-07-29T13:09:54;8.35;;;2.03;;
46719;SDS011;32452;51.382;-0.002;2023-07-29T13:12:39;2.45;;;1.27;;
46719;SDS011;32452;51.382;-0.002;2023-07-29T13:15:25;5.30;;;1.23;;
46719;SDS011;32452;51.382;-0.002;2023-07-29T13:18:11;3.28;;;1.50;;
46719;SDS011;32452;51.382;-0.002;2023-07-29T13:20:56;6.60;;;1.63;;
46719;SDS011;32452;51.382;-0.002;2023-07-29T13:23:42;7.90;;;1.83;;
46719;SDS011;32452;51.382;-0.002;2023-07-29T13:26:27;8.15;;;2.08;;
46719;SDS011;32452;51.382;-0.002;2023-07-29T13:29:13;5.63;;;1.83;;
46719;SDS011;32452;51.382;-0.002;2023-07-29T13:31:58;4.85;;;1.65;;
46719;SDS011;32452;51.382;-0.002;2023-07-29T13:34:44;6.78;;;1.98;;
46719;SDS011;32452;51.382;-0.002;2023-07-29T13:37:30;5.20;;;1.73;;
46719;SDS011;32452;51.382;-0.002;2023-07-29T13:40:15;5.68;;;1.75;;
46719;SDS011;32452;51.382;-0.002;2023-07-29T13:43:01;8.02;;;2.40;;
46719;SDS011;32452;51.382;-0.002;2023-07-29T13:45:47;9.65;;;2.17;;
46719;SDS011;32452;51.382;-0.002;2023-07-29T13:48:34;5.47;;;1.60;;
46719;SDS011;32452;51.382;-0.002;2023-07-29T13:51:20;5.47;;;1.60;;
46719;SDS011;32452;51.382;-0.002;2023-07-29T13:54:06;7.13;;;2.00;;
46719;SDS011;32452;51.382;-0.002;2023-07-29T13:56:52;6.70;;;1.80;;
46719;SDS011;32452;51.382;-0.002;2023-07-29T13:59:39;7.72;;;1.83;;
46719;SDS011;32452;51.382;-0.002;2023-07-29T14:02:25;7.47;;;2.10;;
46719;SDS011;32452;51.382;-0.002;2023-07-29T14:05:15;9.98;;;1.63;;
46719;SDS011;32452;51.382;-0.002;2023-07-29T14:08:01;6.03;;;1.48;;
46719;SDS011;32452;51.382;-0.002;2023-07-29T14:10:48;7.13;;;1.90;;
46719;SDS011;32452;51.382;-0.002;2023-07-29T14:13:36;4.65;;;1.50;;
46719;SDS011;32452;51.382;-0.002;2023-07-29T14:16:21;4.40;;;1.38;;
46719;SDS011;32452;51.382;-0.002;2023-07-29T14:19:07;3.45;;;1.40;;
46719;SDS011;32452;51.382;-0.002;2023-07-29T14:21:53;3.85;;;1.27;;
46719;SDS011;32452;51.382;-0.002;2023-07-29T14:24:38;5.18;;;1.23;;
46719;SDS011;32452;51.382;-0.002;2023-07-29T14:27:24;3.50;;;1.13;;
46719;SDS011;32452;51.382;-0.002;2023-07-29T14:30:10;6.35;;;1.75;;
46719;SDS011;32452;51.382;-0.002;2023-07-29T14:32:56;2.45;;;1.10;;
46719;SDS011;32452;51.382;-0.002;2023-07-29T14:35:41;6.22;;;1.52;;
46719;SDS011;32452;51.382;-0.002;2023-07-29T14:38:27;5.03;;;1.42;;
46719;SDS011;32452;51.382;-0.002;2023-07-29T14:41:12;4.68;;;1.38;;
46719;SDS011;32452;51.382;-0.002;2023-07-29T14:43:58;2.58;;;1.00;;
46719;SDS011;32452;51.382;-0.002;2023-07-29T14:46:43;4.22;;;1.30;;
46719;SDS011;32452;51.382;-0.002;2023-07-29T14:49:29;2.80;;;1.10;;
46719;SDS011;32452;51.382;-0.002;2023-07-29T14:52:15;5.20;;;1.33;;
46719;SDS011;32452;51.382;-0.002;2023-07-29T14:55:00;3.60;;;1.35;;
46719;SDS011;32452;51.382;-0.002;2023-07-29T14:57:46;4.32;;;1.20;;
46719;SDS011;32452;51.382;-0.002;2023-07-29T15:00:32;3.70;;;1.00;;
46719;SDS011;32452;51.382;-0.002;2023-07-29T15:03:17;3.85;;;1.50;;
46719;SDS011;32452;51.382;-0.002;2023-07-29T15:06:03;3.90;;;1.25;;
46719;SDS011;32452;51.382;-0.002;2023-07-29T15:08:49;2.53;;;1.30;;
46719;SDS011;32452;51.382;-0.002;2023-07-29T15:11:35;4.88;;;1.30;;
46719;SDS011;32452;51.382;-0.002;2023-07-29T15:14:21;3.72;;;1.38;;
46719;SDS011;32452;51.382;-0.002;2023-07-29T15:17:07;3.53;;;1.60;;
46719;SDS011;32452;51.382;-0.002;2023-07-29T15:19:52;5.65;;;1.02;;
46719;SDS011;32452;51.382;-0.002;2023-07-29T15:22:38;3.72;;;1.13;;
46719;SDS011;32452;51.382;-0.002;2023-07-29T15:25:23;4.22;;;1.13;;
46719;SDS011;32452;51.382;-0.002;2023-07-29T15:28:09;4.18;;;1.27;;
46719;SDS011;32452;51.382;-0.002;2023-07-29T15:30:55;4.90;;;1.38;;
46719;SDS011;32452;51.382;-0.002;2023-07-29T15:33:41;4.68;;;1.25;;
46719;SDS011;32452;51.382;-0.002;2023-07-29T15:36:26;5.38;;;1.55;;
46719;SDS011;32452;51.382;-0.002;2023-07-29T15:39:12;3.97;;;1.42;;
46719;SDS011;32452;51.382;-0.002;2023-07-29T15:41:57;3.83;;;1.55;;
46719;SDS011;32452;51.382;-0.002;2023-07-29T15:44:43;5.75;;;1.20;;
46719;SDS011;32452;51.382;-0.002;2023-07-29T15:47:29;4.68;;;1.15;;
46719;SDS011;32452;51.382;-0.002;2023-07-29T15:50:15;6.68;;;2.25;;
46719;SDS011;32452;51.382;-0.002;2023-07-29T15:53:01;6.05;;;1.73;;
46719;SDS011;32452;51.382;-0.002;2023-07-29T15:55:48;6.10;;;1.90;;
46719;SDS011;32452;51.382;-0.002;2023-07-29T15:58:35;5.22;;;1.48;;
46719;SDS011;32452;51.382;-0.002;2023-07-29T16:01:21;9.88;;;2.60;;
46719;SDS011;32452;51.382;-0.002;2023-07-29T16:04:07;7.22;;;2.20;;
46719;SDS011;32452;51.382;-0.002;2023-07-29T16:06:53;12.90;;;2.88;;
46719;SDS011;32452;51.382;-0.002;2023-07-29T16:09:38;7.80;;;2.05;;
46719;SDS011;32452;51.382;-0.002;2023-07-29T16:12:24;6.07;;;2.13;;
46719;SDS011;32452;51.382;-0.002;2023-07-29T16:15:10;10.52;;;2.90;;
46719;SDS011;32452;51.382;-0.002;2023-07-29T16:17:56;11.98;;;2.70;;
46719;SDS011;32452;51.382;-0.002;2023-07-29T16:20:43;9.25;;;2.65;;
46719;SDS011;32452;51.382;-0.002;2023-07-29T16:23:29;9.63;;;2.42;;
46719;SDS011;32452;51.382;-0.002;2023-07-29T16:26:15;11.32;;;2.35;;
46719;SDS011;32452;51.382;-0.002;2023-07-29T16:29:01;11.18;;;2.70;;
46719;SDS011;32452;51.382;-0.002;2023-07-29T16:31:48;13.35;;;2.65;;
46719;SDS011;32452;51.382;-0.002;2023-07-29T16:34:37;6.68;;;2.08;;
46719;SDS011;32452;51.382;-0.002;2023-07-29T16:37:23;8.82;;;2.60;;
46719;SDS011;32452;51.382;-0.002;2023-07-29T16:40:09;12.40;;;2.63;;